createdAt,value
2022-10-08T00:03:09.538Z,19.1
2022-10-08T00:08:45.565Z,19.1
2022-10-08T00:14:24.348Z,19.1
2022-10-08T00:20:01.452Z,19.1
2022-10-08T00:25:45.201Z,19.1
2022-10-08T00:31:21.166Z,19
2022-10-08T00:36:57.071Z,18.9
2022-10-08T00:42:34.683Z,18.8
2022-10-08T00:48:12.538Z,18.7
2022-10-08T00:54:01.580Z,18.7
2022-10-08T00:59:39.649Z,18.7
2022-10-08T01:05:15.674Z,18.6
2022-10-08T01:11:12.281Z,18.6
2022-10-08T01:16:45.197Z,18.5
2022-10-08T01:22:21.642Z,18.5
2022-10-08T01:27:56.697Z,18.4
2022-10-08T01:33:32.656Z,18.3
2022-10-08T01:39:30.971Z,18.3
2022-10-08T01:45:05.985Z,18.3
2022-10-08T01:50:43.605Z,18.3
2022-10-08T01:56:21.132Z,18.3
2022-10-08T02:02:00.138Z,18.3
2022-10-08T02:08:21.047Z,18.2
2022-10-08T02:14:26.619Z,18.2
2022-10-08T02:19:59.251Z,18.1
2022-10-08T02:25:34.503Z,18.1
2022-10-08T02:31:37.615Z,18.1
2022-10-08T02:37:13.432Z,18.1
2022-10-08T02:42:51.129Z,18.1
2022-10-08T02:48:26.842Z,18.1
2022-10-08T02:54:01.761Z,18.1
2022-10-08T02:59:36.581Z,18.1
2022-10-08T03:05:11.465Z,18.1
2022-10-08T03:11:16.991Z,18.1
2022-10-08T03:16:49.967Z,18.1
2022-10-08T03:22:54.804Z,18.1
2022-10-08T03:28:29.675Z,18.1
2022-10-08T03:34:23.411Z,18.1
2022-10-08T03:40:13.149Z,18.1
2022-10-08T03:45:49.142Z,18
2022-10-08T03:51:25.208Z,18
2022-10-08T03:57:00.096Z,18
2022-10-08T04:02:43.152Z,18
2022-10-08T04:08:20.900Z,18
2022-10-08T04:14:17.518Z,18
2022-10-08T04:19:50.933Z,18
2022-10-08T04:25:38.788Z,18
2022-10-08T04:31:14.598Z,17.9
2022-10-08T04:36:53.025Z,17.9
2022-10-08T04:43:03.809Z,17.9
2022-10-08T04:48:46.666Z,17.9
2022-10-08T04:54:21.722Z,17.9
2022-10-08T05:00:16.879Z,17.9
2022-10-08T05:06:15.688Z,17.9
2022-10-08T05:11:51.300Z,17.9
2022-10-08T05:17:29.105Z,17.9
2022-10-08T05:23:06.347Z,17.9
2022-10-08T05:28:41.341Z,17.9
2022-10-08T05:34:17.500Z,17.9
2022-10-08T05:39:59.529Z,17.9
2022-10-08T05:45:43.972Z,17.9
2022-10-08T05:51:26.853Z,17.9
2022-10-08T05:57:08.638Z,18
2022-10-08T06:05:29.522Z,18
2022-10-08T06:11:10.146Z,18
2022-10-08T06:16:47.340Z,18
2022-10-08T06:22:22.118Z,17.9
2022-10-08T06:27:57.394Z,17.9
2022-10-08T06:33:32.248Z,17.9
2022-10-08T06:39:07.445Z,17.9
2022-10-08T06:44:44.108Z,17.4
2022-10-08T06:50:19.278Z,17.2
2022-10-08T06:55:54.248Z,17.2
2022-10-08T07:01:33.111Z,17.1
2022-10-08T07:07:11.937Z,17
2022-10-08T07:12:46.968Z,16.9
2022-10-08T07:18:26.530Z,16.9
2022-10-08T07:24:01.406Z,17
2022-10-08T07:29:36.817Z,17.1
2022-10-08T07:35:11.913Z,17.3
2022-10-08T07:40:48.938Z,17.5
2022-10-08T07:46:24.219Z,17.8
2022-10-08T07:51:59.068Z,17.9
2022-10-08T07:57:35.027Z,18.6
2022-10-08T08:03:09.913Z,19.9
2022-10-08T08:08:44.950Z,19.8
2022-10-08T08:14:19.879Z,19.5
2022-10-08T08:19:54.852Z,19.5
2022-10-08T08:25:29.902Z,19.5
2022-10-08T08:31:04.757Z,19.4
2022-10-08T08:36:39.709Z,19.6
2022-10-08T08:42:14.807Z,20.3
2022-10-08T08:47:49.576Z,20.6
2022-10-08T08:53:24.523Z,20.9
2022-10-08T08:59:00.588Z,21.1
2022-10-08T09:04:35.486Z,20.8
2022-10-08T09:10:12.857Z,20.5
2022-10-08T09:15:47.892Z,20.4
2022-10-08T09:21:23.471Z,20.5
2022-10-08T09:26:59.311Z,20.7
2022-10-08T09:32:34.602Z,21.1
2022-10-08T09:38:09.402Z,21
2022-10-08T09:43:44.644Z,20.6
2022-10-08T09:49:19.231Z,20.6
2022-10-08T09:54:54.307Z,20.8
2022-10-08T10:00:29.504Z,21.1
2022-10-08T10:06:04.625Z,21.5
2022-10-08T10:11:39.403Z,21.5
2022-10-08T10:17:14.364Z,21.8
2022-10-08T10:22:50.065Z,21.8
2022-10-08T10:28:26.240Z,22
2022-10-08T10:34:01.920Z,22.1
2022-10-08T10:39:37.230Z,22.3
2022-10-08T10:45:12.909Z,22.6
2022-10-08T10:50:48.095Z,22.6
2022-10-08T10:56:23.345Z,22.9
2022-10-08T11:01:58.769Z,23.1
2022-10-08T11:07:35.019Z,22.2
2022-10-08T11:13:10.249Z,22.1
2022-10-08T11:18:57.483Z,22.8
2022-10-08T11:24:32.308Z,22.1
2022-10-08T11:30:07.670Z,21.6
2022-10-08T11:35:42.534Z,21.9
2022-10-08T11:41:17.711Z,21.7
2022-10-08T11:47:00.747Z,21.6
2022-10-08T11:52:35.616Z,22.1
2022-10-08T11:58:10.411Z,21.5
2022-10-08T12:03:46.611Z,22
2022-10-08T12:09:23.791Z,22
2022-10-08T12:14:58.923Z,23.1
2022-10-08T12:20:34.309Z,23.2
2022-10-08T12:26:10.288Z,25.3
2022-10-08T12:31:49.639Z,24.2
2022-10-08T12:37:25.773Z,24.5
2022-10-08T12:43:00.787Z,23.7
2022-10-08T12:48:36.818Z,23.8
2022-10-08T12:54:13.083Z,23.6
2022-10-08T12:59:48.110Z,24
2022-10-08T13:05:24.123Z,25.3
2022-10-08T13:11:20.922Z,26.2
2022-10-08T13:16:53.688Z,28.9
2022-10-08T13:22:29.640Z,29.2
2022-10-08T13:28:04.833Z,26.5
2022-10-08T13:33:40.236Z,24.4
2022-10-08T13:39:15.114Z,25.9
2022-10-08T13:44:50.047Z,34.6
2022-10-08T13:50:25.089Z,38
2022-10-08T13:56:00.140Z,37.5
2022-10-08T14:01:35.407Z,40.2
2022-10-08T14:07:11.643Z,35.2
2022-10-08T14:12:48.000Z,29.5
2022-10-08T14:18:22.891Z,27.7
2022-10-08T14:23:57.711Z,33.9
2022-10-08T14:29:32.726Z,32
2022-10-08T14:35:08.008Z,26.6
2022-10-08T14:40:42.893Z,25.1
2022-10-08T14:46:17.538Z,24.3
2022-10-08T14:51:53.408Z,23.8
2022-10-08T14:57:28.077Z,23.5
2022-10-08T15:03:02.916Z,23.2
2022-10-08T15:08:37.789Z,23.4
2022-10-08T15:14:12.654Z,23.7
2022-10-08T15:19:47.819Z,24.3
2022-10-08T15:25:22.749Z,23.5
2022-10-08T15:30:57.558Z,23.5
2022-10-08T15:36:32.606Z,24.1
2022-10-08T15:42:07.410Z,24.2
2022-10-08T15:47:42.334Z,23.6
2022-10-08T15:53:17.094Z,22.7
2022-10-08T15:58:52.203Z,22.7
2022-10-08T16:04:27.250Z,22.7
2022-10-08T16:10:02.430Z,22.5
2022-10-08T16:15:37.125Z,22.5
2022-10-08T16:21:12.014Z,22.2
2022-10-08T16:26:47.304Z,22.2
2022-10-08T16:32:22.050Z,22
2022-10-08T16:37:57.066Z,21.8
2022-10-08T16:43:32.045Z,21.8
2022-10-08T16:49:08.018Z,21.8
2022-10-08T16:54:43.829Z,21.5
2022-10-08T17:00:18.679Z,21.2
2022-10-08T17:05:53.709Z,21.2
2022-10-08T17:11:50.689Z,21.2
2022-10-08T17:17:23.701Z,20.8
2022-10-08T17:22:58.847Z,20.4
2022-10-08T17:28:34.057Z,19.9
2022-10-08T17:34:10.226Z,19.5
2022-10-08T17:39:46.352Z,19.2
2022-10-08T17:45:21.143Z,19
2022-10-08T17:50:55.880Z,18.8
2022-10-08T17:56:30.903Z,18.7
2022-10-08T18:02:06.710Z,19
2022-10-08T18:07:45.690Z,19.1
2022-10-08T18:13:42.670Z,19.2
2022-10-08T18:19:15.738Z,19.2
2022-10-08T18:24:50.887Z,19.2
2022-10-08T18:30:26.077Z,19.2
2022-10-08T18:36:08.868Z,19.1
2022-10-08T18:41:43.808Z,19.1
2022-10-08T18:47:19.003Z,19.1
2022-10-08T18:52:54.774Z,18.9
2022-10-08T18:58:29.888Z,18.8
2022-10-08T19:04:04.793Z,18.8
2022-10-08T19:09:39.800Z,18.8
2022-10-08T19:15:15.987Z,18.8
2022-10-08T19:20:51.895Z,18.8
2022-10-08T19:26:34.907Z,18.6
2022-10-08T19:32:11.302Z,18.5
2022-10-08T19:37:47.397Z,18.4
2022-10-08T19:43:22.623Z,18.4
2022-10-08T19:48:57.901Z,18.3
2022-10-08T19:54:32.965Z,18.4
2022-10-08T20:00:08.025Z,18.5
2022-10-08T20:05:43.645Z,18.4
2022-10-08T20:11:40.531Z,18.5
2022-10-08T20:17:14.062Z,18.5
2022-10-08T20:22:50.520Z,18.5
2022-10-08T20:28:26.722Z,18.4
2022-10-08T20:34:04.412Z,18.4
2022-10-08T20:39:40.443Z,18.4
2022-10-08T20:45:18.115Z,18.4
2022-10-08T20:50:53.938Z,18.4
2022-10-08T20:56:32.819Z,18.2
2022-10-08T21:02:19.555Z,18.3
2022-10-08T21:07:55.542Z,18.2
2022-10-08T21:13:52.334Z,18.1
2022-10-08T21:19:24.940Z,18
2022-10-08T21:25:00.834Z,17.7
2022-10-08T21:30:35.679Z,17.5
2022-10-08T21:36:10.771Z,17.5
2022-10-08T21:41:47.259Z,17.3
2022-10-08T21:47:22.264Z,17.4
2022-10-08T21:52:57.262Z,17.4
2022-10-08T21:58:32.105Z,17.4
2022-10-08T22:04:07.020Z,17.6
2022-10-08T22:09:41.851Z,17.7
2022-10-08T22:15:17.901Z,17.6
2022-10-08T22:20:53.081Z,17.8
2022-10-08T22:26:49.744Z,18.1
2022-10-08T22:32:27.257Z,18.1
2022-10-08T22:38:07.921Z,18.1
2022-10-08T22:43:44.726Z,18.1
2022-10-08T22:49:19.842Z,18.1
2022-10-08T22:54:59.690Z,18
2022-10-08T23:00:37.578Z,18.1
2022-10-08T23:06:12.376Z,18.1
2022-10-08T23:12:09.112Z,18.1
2022-10-08T23:17:41.636Z,18
2022-10-08T23:23:17.621Z,18
2022-10-08T23:28:58.606Z,17.9
2022-10-08T23:34:33.656Z,17.9
2022-10-08T23:40:08.415Z,17.9
2022-10-08T23:45:43.184Z,17.8
2022-10-08T23:51:19.482Z,17.8
2022-10-08T23:56:53.969Z,17.7
